sensor_id;sensor_type;location;lat;lon;timestamp;P1;durP1;ratioP1;P2;durP2;ratioP2
18378;SDS011;27025;51.986;5.984;2022-11-20T00:01:08;16.43;;;13.17;;
18378;SDS011;27025;51.986;5.984;2022-11-20T00:03:34;17.67;;;13.83;;
18378;SDS011;27025;51.986;5.984;2022-11-20T00:06:05;19.67;;;14.10;;
18378;SDS011;27025;51.986;5.984;2022-11-20T00:08:32;17.20;;;13.73;;
18378;SDS011;27025;51.986;5.984;2022-11-20T00:11:02;17.83;;;13.87;;
18378;SDS011;27025;51.986;5.984;2022-11-20T00:13:28;17.40;;;13.70;;
18378;SDS011;27025;51.986;5.984;2022-11-20T00:15:57;18.00;;;13.63;;
18378;SDS011;27025;51.986;5.984;2022-11-20T00:18:24;16.87;;;13.30;;
18378;SDS011;27025;51.986;5.984;2022-11-20T00:20:50;19.13;;;14.37;;
18378;SDS011;27025;51.986;5.984;2022-11-20T00:23:16;17.97;;;13.97;;
18378;SDS011;27025;51.986;5.984;2022-11-20T00:25:42;17.00;;;13.60;;
18378;SDS011;27025;51.986;5.984;2022-11-20T00:28:08;17.27;;;13.30;;
18378;SDS011;27025;51.986;5.984;2022-11-20T00:30:34;17.47;;;13.57;;
18378;SDS011;27025;51.986;5.984;2022-11-20T00:33:00;17.10;;;13.03;;
18378;SDS011;27025;51.986;5.984;2022-11-20T00:35:26;17.77;;;14.00;;
18378;SDS011;27025;51.986;5.984;2022-11-20T00:37:52;16.53;;;13.77;;
18378;SDS011;27025;51.986;5.984;2022-11-20T00:40:18;18.63;;;14.80;;
18378;SDS011;27025;51.986;5.984;2022-11-20T00:42:44;18.37;;;13.83;;
18378;SDS011;27025;51.986;5.984;2022-11-20T00:45:10;18.20;;;13.67;;
18378;SDS011;27025;51.986;5.984;2022-11-20T00:47:36;18.57;;;14.67;;
18378;SDS011;27025;51.986;5.984;2022-11-20T00:50:02;18.23;;;15.47;;
18378;SDS011;27025;51.986;5.984;2022-11-20T00:52:28;17.20;;;13.67;;
18378;SDS011;27025;51.986;5.984;2022-11-20T00:54:54;19.83;;;13.53;;
18378;SDS011;27025;51.986;5.984;2022-11-20T00:57:20;15.47;;;13.33;;
18378;SDS011;27025;51.986;5.984;2022-11-20T00:59:46;16.57;;;13.40;;
18378;SDS011;27025;51.986;5.984;2022-11-20T01:02:12;15.93;;;13.03;;
18378;SDS011;27025;51.986;5.984;2022-11-20T01:04:40;24.23;;;14.03;;
18378;SDS011;27025;51.986;5.984;2022-11-20T01:07:06;17.17;;;12.77;;
18378;SDS011;27025;51.986;5.984;2022-11-20T01:09:32;15.57;;;13.13;;
18378;SDS011;27025;51.986;5.984;2022-11-20T01:11:58;32.73;;;25.63;;
18378;SDS011;27025;51.986;5.984;2022-11-20T01:14:25;24.50;;;18.37;;
18378;SDS011;27025;51.986;5.984;2022-11-20T01:16:51;20.63;;;14.93;;
18378;SDS011;27025;51.986;5.984;2022-11-20T01:19:19;19.43;;;14.70;;
18378;SDS011;27025;51.986;5.984;2022-11-20T01:21:46;21.97;;;16.20;;
18378;SDS011;27025;51.986;5.984;2022-11-20T01:24:13;22.33;;;16.30;;
18378;SDS011;27025;51.986;5.984;2022-11-20T01:26:41;16.10;;;12.70;;
18378;SDS011;27025;51.986;5.984;2022-11-20T01:29:08;18.23;;;14.03;;
18378;SDS011;27025;51.986;5.984;2022-11-20T01:31:36;16.97;;;13.63;;
18378;SDS011;27025;51.986;5.984;2022-11-20T01:34:04;18.53;;;13.33;;
18378;SDS011;27025;51.986;5.984;2022-11-20T01:36:31;15.47;;;12.83;;
18378;SDS011;27025;51.986;5.984;2022-11-20T01:38:58;16.03;;;12.77;;
18378;SDS011;27025;51.986;5.984;2022-11-20T01:41:25;18.40;;;12.67;;
18378;SDS011;27025;51.986;5.984;2022-11-20T01:44:10;19.43;;;14.40;;
18378;SDS011;27025;51.986;5.984;2022-11-20T01:46:38;16.67;;;12.87;;
18378;SDS011;27025;51.986;5.984;2022-11-20T01:49:07;16.40;;;12.20;;
18378;SDS011;27025;51.986;5.984;2022-11-20T01:54:06;17.10;;;14.95;;
18378;SDS011;27025;51.986;5.984;2022-11-20T01:56:33;19.13;;;16.67;;
18378;SDS011;27025;51.986;5.984;2022-11-20T01:59:01;17.23;;;13.60;;
18378;SDS011;27025;51.986;5.984;2022-11-20T02:01:28;17.93;;;13.03;;
18378;SDS011;27025;51.986;5.984;2022-11-20T02:03:54;15.87;;;12.40;;
18378;SDS011;27025;51.986;5.984;2022-11-20T02:06:24;16.53;;;13.07;;
18378;SDS011;27025;51.986;5.984;2022-11-20T02:08:51;15.53;;;12.57;;
18378;SDS011;27025;51.986;5.984;2022-11-20T02:11:17;15.03;;;11.87;;
18378;SDS011;27025;51.986;5.984;2022-11-20T02:13:43;15.20;;;12.63;;
18378;SDS011;27025;51.986;5.984;2022-11-20T02:16:14;23.30;;;18.33;;
18378;SDS011;27025;51.986;5.984;2022-11-20T02:18:41;18.97;;;14.20;;
18378;SDS011;27025;51.986;5.984;2022-11-20T02:24:00;17.77;;;13.83;;
18378;SDS011;27025;51.986;5.984;2022-11-20T02:26:26;16.63;;;13.90;;
18378;SDS011;27025;51.986;5.984;2022-11-20T02:28:54;18.73;;;14.00;;
18378;SDS011;27025;51.986;5.984;2022-11-20T02:31:20;16.00;;;13.47;;
18378;SDS011;27025;51.986;5.984;2022-11-20T02:33:46;17.80;;;13.50;;
18378;SDS011;27025;51.986;5.984;2022-11-20T02:36:14;17.10;;;13.90;;
18378;SDS011;27025;51.986;5.984;2022-11-20T02:38:41;19.17;;;13.87;;
18378;SDS011;27025;51.986;5.984;2022-11-20T02:41:09;17.70;;;13.97;;
18378;SDS011;27025;51.986;5.984;2022-11-20T02:43:35;20.10;;;14.20;;
18378;SDS011;27025;51.986;5.984;2022-11-20T02:46:03;18.33;;;14.00;;
18378;SDS011;27025;51.986;5.984;2022-11-20T02:48:32;17.50;;;14.07;;
18378;SDS011;27025;51.986;5.984;2022-11-20T02:50:58;20.30;;;14.83;;
18378;SDS011;27025;51.986;5.984;2022-11-20T02:53:24;19.13;;;14.03;;
18378;SDS011;27025;51.986;5.984;2022-11-20T02:55:50;21.73;;;14.30;;
18378;SDS011;27025;51.986;5.984;2022-11-20T02:58:22;18.80;;;13.90;;
18378;SDS011;27025;51.986;5.984;2022-11-20T03:00:48;17.83;;;12.97;;
18378;SDS011;27025;51.986;5.984;2022-11-20T03:03:14;18.47;;;13.43;;
18378;SDS011;27025;51.986;5.984;2022-11-20T03:05:40;16.77;;;13.03;;
18378;SDS011;27025;51.986;5.984;2022-11-20T03:08:06;19.73;;;14.07;;
18378;SDS011;27025;51.986;5.984;2022-11-20T03:10:32;16.23;;;13.20;;
18378;SDS011;27025;51.986;5.984;2022-11-20T03:12:58;17.43;;;13.07;;
18378;SDS011;27025;51.986;5.984;2022-11-20T03:15:24;18.37;;;14.00;;
18378;SDS011;27025;51.986;5.984;2022-11-20T03:17:53;19.00;;;15.60;;
18378;SDS011;27025;51.986;5.984;2022-11-20T03:20:19;18.98;;;15.85;;
18378;SDS011;27025;51.986;5.984;2022-11-20T03:22:45;18.37;;;13.40;;
18378;SDS011;27025;51.986;5.984;2022-11-20T03:25:11;19.70;;;14.33;;
18378;SDS011;27025;51.986;5.984;2022-11-20T03:27:37;17.77;;;12.80;;
18378;SDS011;27025;51.986;5.984;2022-11-20T03:30:03;17.40;;;13.30;;
18378;SDS011;27025;51.986;5.984;2022-11-20T03:32:30;18.60;;;13.80;;
18378;SDS011;27025;51.986;5.984;2022-11-20T03:34:56;21.47;;;14.33;;
18378;SDS011;27025;51.986;5.984;2022-11-20T03:37:22;17.17;;;13.30;;
18378;SDS011;27025;51.986;5.984;2022-11-20T03:39:48;17.13;;;12.53;;
18378;SDS011;27025;51.986;5.984;2022-11-20T03:42:14;18.17;;;13.60;;
18378;SDS011;27025;51.986;5.984;2022-11-20T03:44:59;18.93;;;13.60;;
18378;SDS011;27025;51.986;5.984;2022-11-20T03:47:25;18.17;;;13.53;;
18378;SDS011;27025;51.986;5.984;2022-11-20T03:49:51;16.27;;;12.47;;
18378;SDS011;27025;51.986;5.984;2022-11-20T03:52:17;19.47;;;13.23;;
18378;SDS011;27025;51.986;5.984;2022-11-20T03:57:09;18.03;;;13.77;;
18378;SDS011;27025;51.986;5.984;2022-11-20T03:59:35;19.30;;;13.17;;
18378;SDS011;27025;51.986;5.984;2022-11-20T04:02:01;18.90;;;13.77;;
18378;SDS011;27025;51.986;5.984;2022-11-20T04:04:27;17.90;;;13.60;;
18378;SDS011;27025;51.986;5.984;2022-11-20T04:06:53;16.93;;;13.57;;
18378;SDS011;27025;51.986;5.984;2022-11-20T04:09:19;21.33;;;14.17;;
18378;SDS011;27025;51.986;5.984;2022-11-20T04:11:45;19.67;;;14.40;;
18378;SDS011;27025;51.986;5.984;2022-11-20T04:14:12;18.57;;;13.13;;
18378;SDS011;27025;51.986;5.984;2022-11-20T04:16:38;18.37;;;13.50;;
18378;SDS011;27025;51.986;5.984;2022-11-20T04:19:08;19.60;;;13.73;;
18378;SDS011;27025;51.986;5.984;2022-11-20T04:21:35;17.23;;;14.13;;
18378;SDS011;27025;51.986;5.984;2022-11-20T04:24:01;21.40;;;14.07;;
18378;SDS011;27025;51.986;5.984;2022-11-20T04:26:27;16.70;;;13.20;;
18378;SDS011;27025;51.986;5.984;2022-11-20T04:28:54;21.47;;;14.70;;
18378;SDS011;27025;51.986;5.984;2022-11-20T04:31:21;18.03;;;13.70;;
18378;SDS011;27025;51.986;5.984;2022-11-20T04:33:47;18.17;;;13.57;;
18378;SDS011;27025;51.986;5.984;2022-11-20T04:36:17;19.80;;;13.70;;
18378;SDS011;27025;51.986;5.984;2022-11-20T04:38:44;18.73;;;14.23;;
18378;SDS011;27025;51.986;5.984;2022-11-20T04:41:17;17.70;;;13.77;;
18378;SDS011;27025;51.986;5.984;2022-11-20T04:43:45;19.97;;;13.53;;
18378;SDS011;27025;51.986;5.984;2022-11-20T04:46:13;18.10;;;13.63;;
18378;SDS011;27025;51.986;5.984;2022-11-20T04:48:39;18.50;;;12.63;;
18378;SDS011;27025;51.986;5.984;2022-11-20T04:51:05;19.73;;;13.37;;
18378;SDS011;27025;51.986;5.984;2022-11-20T04:53:31;17.63;;;12.87;;
18378;SDS011;27025;51.986;5.984;2022-11-20T04:56:01;19.43;;;13.43;;
18378;SDS011;27025;51.986;5.984;2022-11-20T04:58:27;16.97;;;12.93;;
18378;SDS011;27025;51.986;5.984;2022-11-20T05:00:53;20.10;;;14.20;;
18378;SDS011;27025;51.986;5.984;2022-11-20T05:03:19;17.83;;;12.83;;
18378;SDS011;27025;51.986;5.984;2022-11-20T05:05:45;19.33;;;14.10;;
18378;SDS011;27025;51.986;5.984;2022-11-20T05:08:11;20.60;;;14.23;;
18378;SDS011;27025;51.986;5.984;2022-11-20T05:10:37;18.87;;;14.03;;
18378;SDS011;27025;51.986;5.984;2022-11-20T05:13:03;17.70;;;13.77;;
18378;SDS011;27025;51.986;5.984;2022-11-20T05:15:29;17.50;;;13.57;;
18378;SDS011;27025;51.986;5.984;2022-11-20T05:17:55;18.23;;;14.13;;
18378;SDS011;27025;51.986;5.984;2022-11-20T05:20:21;18.40;;;14.37;;
18378;SDS011;27025;51.986;5.984;2022-11-20T05:22:47;18.50;;;13.97;;
18378;SDS011;27025;51.986;5.984;2022-11-20T05:25:13;19.00;;;14.23;;
18378;SDS011;27025;51.986;5.984;2022-11-20T05:27:39;17.43;;;14.00;;
18378;SDS011;27025;51.986;5.984;2022-11-20T05:30:05;18.25;;;14.85;;
18378;SDS011;27025;51.986;5.984;2022-11-20T05:32:32;20.58;;;18.40;;
18378;SDS011;27025;51.986;5.984;2022-11-20T05:34:58;21.65;;;19.20;;
18378;SDS011;27025;51.986;5.984;2022-11-20T05:37:24;22.97;;;16.83;;
18378;SDS011;27025;51.986;5.984;2022-11-20T05:39:50;22.77;;;16.40;;
18378;SDS011;27025;51.986;5.984;2022-11-20T05:42:16;20.77;;;15.37;;
18378;SDS011;27025;51.986;5.984;2022-11-20T05:45:00;20.07;;;15.43;;
18378;SDS011;27025;51.986;5.984;2022-11-20T05:47:27;21.17;;;15.53;;
18378;SDS011;27025;51.986;5.984;2022-11-20T05:49:53;22.53;;;15.53;;
18378;SDS011;27025;51.986;5.984;2022-11-20T05:52:19;20.07;;;15.47;;
18378;SDS011;27025;51.986;5.984;2022-11-20T05:54:45;21.73;;;16.23;;
18378;SDS011;27025;51.986;5.984;2022-11-20T05:57:11;21.07;;;16.10;;
18378;SDS011;27025;51.986;5.984;2022-11-20T05:59:37;22.33;;;15.87;;
18378;SDS011;27025;51.986;5.984;2022-11-20T06:02:03;21.97;;;15.03;;
18378;SDS011;27025;51.986;5.984;2022-11-20T06:04:29;23.97;;;16.23;;
18378;SDS011;27025;51.986;5.984;2022-11-20T06:06:55;22.83;;;16.03;;
18378;SDS011;27025;51.986;5.984;2022-11-20T06:09:21;22.40;;;15.80;;
18378;SDS011;27025;51.986;5.984;2022-11-20T06:11:47;19.60;;;15.43;;
18378;SDS011;27025;51.986;5.984;2022-11-20T06:14:13;22.07;;;15.93;;
18378;SDS011;27025;51.986;5.984;2022-11-20T06:16:39;22.00;;;15.63;;
18378;SDS011;27025;51.986;5.984;2022-11-20T06:19:05;21.67;;;15.27;;
18378;SDS011;27025;51.986;5.984;2022-11-20T06:21:31;20.57;;;15.80;;
18378;SDS011;27025;51.986;5.984;2022-11-20T06:23:57;22.73;;;15.60;;
18378;SDS011;27025;51.986;5.984;2022-11-20T06:26:25;23.13;;;15.50;;
18378;SDS011;27025;51.986;5.984;2022-11-20T06:28:51;20.53;;;15.47;;
18378;SDS011;27025;51.986;5.984;2022-11-20T06:31:18;19.33;;;15.37;;
18378;SDS011;27025;51.986;5.984;2022-11-20T06:33:45;24.60;;;15.20;;
18378;SDS011;27025;51.986;5.984;2022-11-20T06:36:12;20.87;;;15.47;;
18378;SDS011;27025;51.986;5.984;2022-11-20T06:38:38;20.73;;;16.07;;
18378;SDS011;27025;51.986;5.984;2022-11-20T06:41:05;22.27;;;15.77;;
18378;SDS011;27025;51.986;5.984;2022-11-20T06:43:31;23.13;;;15.97;;
18378;SDS011;27025;51.986;5.984;2022-11-20T06:45:57;22.63;;;17.07;;
18378;SDS011;27025;51.986;5.984;2022-11-20T06:48:25;22.47;;;16.67;;
18378;SDS011;27025;51.986;5.984;2022-11-20T06:50:51;21.93;;;16.17;;
18378;SDS011;27025;51.986;5.984;2022-11-20T06:53:17;22.47;;;16.97;;
18378;SDS011;27025;51.986;5.984;2022-11-20T06:55:43;21.90;;;16.37;;
18378;SDS011;27025;51.986;5.984;2022-11-20T06:58:10;22.20;;;16.73;;
18378;SDS011;27025;51.986;5.984;2022-11-20T07:00:36;21.67;;;16.63;;
18378;SDS011;27025;51.986;5.984;2022-11-20T07:03:05;20.47;;;16.37;;
18378;SDS011;27025;51.986;5.984;2022-11-20T07:05:31;20.97;;;16.30;;
18378;SDS011;27025;51.986;5.984;2022-11-20T07:07:57;20.90;;;16.50;;
18378;SDS011;27025;51.986;5.984;2022-11-20T07:10:24;20.90;;;15.80;;
18378;SDS011;27025;51.986;5.984;2022-11-20T07:12:51;22.97;;;16.37;;
18378;SDS011;27025;51.986;5.984;2022-11-20T07:15:17;22.40;;;16.43;;
18378;SDS011;27025;51.986;5.984;2022-11-20T07:17:43;24.65;;;17.92;;
18378;SDS011;27025;51.986;5.984;2022-11-20T07:20:10;23.27;;;20.73;;
18378;SDS011;27025;51.986;5.984;2022-11-20T07:22:36;29.23;;;22.52;;
18378;SDS011;27025;51.986;5.984;2022-11-20T07:25:02;44.00;;;26.77;;
18378;SDS011;27025;51.986;5.984;2022-11-20T07:27:28;46.33;;;27.77;;
18378;SDS011;27025;51.986;5.984;2022-11-20T07:29:54;34.95;;;27.25;;
18378;SDS011;27025;51.986;5.984;2022-11-20T07:32:21;33.83;;;26.92;;
18378;SDS011;27025;51.986;5.984;2022-11-20T07:34:47;31.25;;;25.90;;
18378;SDS011;27025;51.986;5.984;2022-11-20T07:37:13;29.23;;;25.10;;
18378;SDS011;27025;51.986;5.984;2022-11-20T07:39:39;28.27;;;24.67;;
18378;SDS011;27025;51.986;5.984;2022-11-20T07:42:06;31.63;;;25.63;;
18378;SDS011;27025;51.986;5.984;2022-11-20T07:44:32;29.42;;;24.45;;
18378;SDS011;27025;51.986;5.984;2022-11-20T07:46:58;27.20;;;19.57;;
18378;SDS011;27025;51.986;5.984;2022-11-20T07:49:24;29.33;;;23.02;;
18378;SDS011;27025;51.986;5.984;2022-11-20T07:51:50;26.55;;;23.42;;
18378;SDS011;27025;51.986;5.984;2022-11-20T07:54:18;29.88;;;22.80;;
18378;SDS011;27025;51.986;5.984;2022-11-20T07:56:45;30.53;;;23.57;;
18378;SDS011;27025;51.986;5.984;2022-11-20T07:59:11;26.55;;;22.92;;
18378;SDS011;27025;51.986;5.984;2022-11-20T08:01:37;25.27;;;22.55;;
18378;SDS011;27025;51.986;5.984;2022-11-20T08:04:03;24.92;;;22.33;;
18378;SDS011;27025;51.986;5.984;2022-11-20T08:06:29;23.58;;;20.98;;
18378;SDS011;27025;51.986;5.984;2022-11-20T08:08:55;26.80;;;21.30;;
18378;SDS011;27025;51.986;5.984;2022-11-20T08:11:21;28.90;;;22.00;;
18378;SDS011;27025;51.986;5.984;2022-11-20T08:14:06;28.98;;;22.05;;
18378;SDS011;27025;51.986;5.984;2022-11-20T08:16:38;27.90;;;21.90;;
18378;SDS011;27025;51.986;5.984;2022-11-20T08:19:05;23.88;;;21.25;;
18378;SDS011;27025;51.986;5.984;2022-11-20T08:21:31;23.30;;;20.80;;
18378;SDS011;27025;51.986;5.984;2022-11-20T08:23:57;23.70;;;21.30;;
18378;SDS011;27025;51.986;5.984;2022-11-20T08:26:24;23.75;;;21.25;;
18378;SDS011;27025;51.986;5.984;2022-11-20T08:28:56;23.83;;;21.40;;
18378;SDS011;27025;51.986;5.984;2022-11-20T08:31:23;24.38;;;21.88;;
18378;SDS011;27025;51.986;5.984;2022-11-20T08:33:49;23.58;;;21.17;;
18378;SDS011;27025;51.986;5.984;2022-11-20T08:36:16;23.45;;;21.02;;
18378;SDS011;27025;51.986;5.984;2022-11-20T08:38:46;23.85;;;21.45;;
18378;SDS011;27025;51.986;5.984;2022-11-20T08:41:12;24.33;;;21.90;;
18378;SDS011;27025;51.986;5.984;2022-11-20T08:46:20;23.38;;;20.98;;
18378;SDS011;27025;51.986;5.984;2022-11-20T08:48:46;21.75;;;19.60;;
18378;SDS011;27025;51.986;5.984;2022-11-20T08:51:13;20.75;;;18.65;;
18378;SDS011;27025;51.986;5.984;2022-11-20T08:53:39;20.40;;;18.40;;
18378;SDS011;27025;51.986;5.984;2022-11-20T08:56:05;20.95;;;18.95;;
18378;SDS011;27025;51.986;5.984;2022-11-20T08:58:31;21.83;;;19.65;;
18378;SDS011;27025;51.986;5.984;2022-11-20T09:00:57;22.17;;;20.00;;
18378;SDS011;27025;51.986;5.984;2022-11-20T09:03:23;20.70;;;18.52;;
18378;SDS011;27025;51.986;5.984;2022-11-20T09:05:56;18.90;;;17.00;;
18378;SDS011;27025;51.986;5.984;2022-11-20T09:08:22;19.58;;;17.67;;
18378;SDS011;27025;51.986;5.984;2022-11-20T09:10:51;19.98;;;18.10;;
18378;SDS011;27025;51.986;5.984;2022-11-20T09:13:17;18.35;;;16.65;;
18378;SDS011;27025;51.986;5.984;2022-11-20T09:15:43;19.60;;;17.65;;
18378;SDS011;27025;51.986;5.984;2022-11-20T09:18:09;19.85;;;17.85;;
18378;SDS011;27025;51.986;5.984;2022-11-20T09:20:35;21.00;;;18.95;;
18378;SDS011;27025;51.986;5.984;2022-11-20T09:23:01;22.33;;;20.17;;
18378;SDS011;27025;51.986;5.984;2022-11-20T09:25:27;23.27;;;20.98;;
18378;SDS011;27025;51.986;5.984;2022-11-20T09:27:56;23.38;;;21.08;;
18378;SDS011;27025;51.986;5.984;2022-11-20T09:30:22;19.90;;;17.80;;
18378;SDS011;27025;51.986;5.984;2022-11-20T09:32:48;23.13;;;19.17;;
18378;SDS011;27025;51.986;5.984;2022-11-20T09:35:14;21.17;;;17.90;;
18378;SDS011;27025;51.986;5.984;2022-11-20T09:37:40;25.20;;;19.40;;
18378;SDS011;27025;51.986;5.984;2022-11-20T09:40:06;21.50;;;18.63;;
18378;SDS011;27025;51.986;5.984;2022-11-20T09:55:47;27.17;;;20.10;;
18378;SDS011;27025;51.986;5.984;2022-11-20T10:01:15;25.57;;;19.47;;
18378;SDS011;27025;51.986;5.984;2022-11-20T10:06:10;26.47;;;21.27;;
18378;SDS011;27025;51.986;5.984;2022-11-20T10:08:39;26.87;;;21.83;;
18378;SDS011;27025;51.986;5.984;2022-11-20T10:21:50;30.33;;;23.20;;
18378;SDS011;27025;51.986;5.984;2022-11-20T10:25:02;29.93;;;22.80;;
18378;SDS011;27025;51.986;5.984;2022-11-20T10:30:15;28.93;;;22.97;;
18378;SDS011;27025;51.986;5.984;2022-11-20T10:33:03;29.70;;;23.37;;
18378;SDS011;27025;51.986;5.984;2022-11-20T10:35:40;30.90;;;23.40;;
18378;SDS011;27025;51.986;5.984;2022-11-20T10:38:20;28.87;;;22.17;;
18378;SDS011;27025;51.986;5.984;2022-11-20T10:40:57;29.83;;;23.13;;
18378;SDS011;27025;51.986;5.984;2022-11-20T10:43:45;30.90;;;22.90;;
18378;SDS011;27025;51.986;5.984;2022-11-20T10:46:21;26.50;;;22.20;;
18378;SDS011;27025;51.986;5.984;2022-11-20T10:48:47;31.07;;;22.30;;
18378;SDS011;27025;51.986;5.984;2022-11-20T10:56:34;26.07;;;20.27;;
18378;SDS011;27025;51.986;5.984;2022-11-20T10:59:10;26.20;;;20.47;;
18378;SDS011;27025;51.986;5.984;2022-11-20T11:01:41;27.10;;;21.30;;
18378;SDS011;27025;51.986;5.984;2022-11-20T11:04:32;27.20;;;21.13;;
18378;SDS011;27025;51.986;5.984;2022-11-20T11:06:54;27.97;;;21.20;;
18378;SDS011;27025;51.986;5.984;2022-11-20T11:09:25;30.20;;;22.43;;
18378;SDS011;27025;51.986;5.984;2022-11-20T11:11:55;30.63;;;22.43;;
18378;SDS011;27025;51.986;5.984;2022-11-20T11:14:22;27.43;;;21.73;;
18378;SDS011;27025;51.986;5.984;2022-11-20T11:16:50;29.63;;;23.67;;
18378;SDS011;27025;51.986;5.984;2022-11-20T11:19:16;28.93;;;23.73;;
18378;SDS011;27025;51.986;5.984;2022-11-20T11:21:46;33.07;;;24.13;;
18378;SDS011;27025;51.986;5.984;2022-11-20T11:24:26;28.50;;;23.13;;
18378;SDS011;27025;51.986;5.984;2022-11-20T11:26:59;32.23;;;25.47;;
18378;SDS011;27025;51.986;5.984;2022-11-20T11:29:30;32.33;;;24.50;;
18378;SDS011;27025;51.986;5.984;2022-11-20T11:32:03;32.13;;;25.57;;
18378;SDS011;27025;51.986;5.984;2022-11-20T11:34:30;30.53;;;24.07;;
18378;SDS011;27025;51.986;5.984;2022-11-20T11:36:57;31.43;;;24.67;;
18378;SDS011;27025;51.986;5.984;2022-11-20T11:39:23;32.93;;;26.77;;
18378;SDS011;27025;51.986;5.984;2022-11-20T11:41:50;32.17;;;26.60;;
18378;SDS011;27025;51.986;5.984;2022-11-20T11:44:18;34.27;;;27.27;;
18378;SDS011;27025;51.986;5.984;2022-11-20T11:47:03;33.63;;;27.27;;
18378;SDS011;27025;51.986;5.984;2022-11-20T11:49:31;36.43;;;27.23;;
18378;SDS011;27025;51.986;5.984;2022-11-20T11:57:03;32.87;;;25.87;;
18378;SDS011;27025;51.986;5.984;2022-11-20T11:59:40;31.17;;;25.83;;
18378;SDS011;27025;51.986;5.984;2022-11-20T12:02:25;32.00;;;25.30;;
18378;SDS011;27025;51.986;5.984;2022-11-20T12:04:54;32.00;;;25.70;;
18378;SDS011;27025;51.986;5.984;2022-11-20T12:07:36;29.57;;;24.03;;
18378;SDS011;27025;51.986;5.984;2022-11-20T12:10:04;29.00;;;23.70;;
18378;SDS011;27025;51.986;5.984;2022-11-20T12:12:37;29.03;;;23.10;;
18378;SDS011;27025;51.986;5.984;2022-11-20T12:15:09;34.37;;;27.53;;
18378;SDS011;27025;51.986;5.984;2022-11-20T12:17:36;29.43;;;23.60;;
18378;SDS011;27025;51.986;5.984;2022-11-20T12:20:02;28.03;;;22.77;;
18378;SDS011;27025;51.986;5.984;2022-11-20T12:30:21;31.63;;;25.93;;
18378;SDS011;27025;51.986;5.984;2022-11-20T12:38:23;34.73;;;26.20;;
18378;SDS011;27025;51.986;5.984;2022-11-20T12:43:43;34.10;;;25.90;;
18378;SDS011;27025;51.986;5.984;2022-11-20T12:49:08;30.73;;;25.80;;
18378;SDS011;27025;51.986;5.984;2022-11-20T12:57:03;37.80;;;28.73;;
18378;SDS011;27025;51.986;5.984;2022-11-20T13:02:09;35.03;;;26.90;;
18378;SDS011;27025;51.986;5.984;2022-11-20T13:07:24;34.10;;;27.37;;
18378;SDS011;27025;51.986;5.984;2022-11-20T13:09:51;43.90;;;34.77;;
18378;SDS011;27025;51.986;5.984;2022-11-20T13:12:23;39.90;;;29.87;;
18378;SDS011;27025;51.986;5.984;2022-11-20T13:17:18;35.23;;;27.70;;
18378;SDS011;27025;51.986;5.984;2022-11-20T13:19:52;36.07;;;28.17;;
18378;SDS011;27025;51.986;5.984;2022-11-20T13:22:26;39.43;;;30.47;;
18378;SDS011;27025;51.986;5.984;2022-11-20T13:24:52;35.13;;;29.07;;
18378;SDS011;27025;51.986;5.984;2022-11-20T13:27:19;39.40;;;31.03;;
18378;SDS011;27025;51.986;5.984;2022-11-20T13:29:46;60.90;;;45.70;;
18378;SDS011;27025;51.986;5.984;2022-11-20T13:34:39;40.93;;;32.33;;
18378;SDS011;27025;51.986;5.984;2022-11-20T13:37:05;36.00;;;28.07;;
18378;SDS011;27025;51.986;5.984;2022-11-20T13:39:33;40.60;;;31.00;;
18378;SDS011;27025;51.986;5.984;2022-11-20T13:42:18;38.77;;;30.53;;
18378;SDS011;27025;51.986;5.984;2022-11-20T13:45:00;40.50;;;30.50;;
18378;SDS011;27025;51.986;5.984;2022-11-20T13:47:27;41.67;;;31.47;;
18378;SDS011;27025;51.986;5.984;2022-11-20T13:49:57;43.60;;;30.73;;
18378;SDS011;27025;51.986;5.984;2022-11-20T13:52:42;44.87;;;34.23;;
18378;SDS011;27025;51.986;5.984;2022-11-20T14:00:25;41.90;;;31.83;;
18378;SDS011;27025;51.986;5.984;2022-11-20T14:05:50;44.67;;;31.97;;
18378;SDS011;27025;51.986;5.984;2022-11-20T14:08:21;42.30;;;31.80;;
18378;SDS011;27025;51.986;5.984;2022-11-20T14:10:49;44.07;;;32.23;;
18378;SDS011;27025;51.986;5.984;2022-11-20T14:13:17;44.87;;;32.40;;
18378;SDS011;27025;51.986;5.984;2022-11-20T14:15:43;45.30;;;33.00;;
18378;SDS011;27025;51.986;5.984;2022-11-20T14:18:13;47.50;;;34.90;;
18378;SDS011;27025;51.986;5.984;2022-11-20T14:20:40;53.13;;;38.10;;
18378;SDS011;27025;51.986;5.984;2022-11-20T14:23:08;48.17;;;36.10;;
18378;SDS011;27025;51.986;5.984;2022-11-20T14:25:35;48.57;;;36.27;;
18378;SDS011;27025;51.986;5.984;2022-11-20T14:28:01;53.33;;;39.07;;
18378;SDS011;27025;51.986;5.984;2022-11-20T14:30:29;49.50;;;36.10;;
18378;SDS011;27025;51.986;5.984;2022-11-20T14:33:02;49.13;;;36.30;;
18378;SDS011;27025;51.986;5.984;2022-11-20T14:35:29;46.27;;;33.90;;
18378;SDS011;27025;51.986;5.984;2022-11-20T14:37:56;44.30;;;33.40;;
18378;SDS011;27025;51.986;5.984;2022-11-20T14:42:49;48.73;;;35.90;;
18378;SDS011;27025;51.986;5.984;2022-11-20T14:45:15;48.17;;;34.70;;
18378;SDS011;27025;51.986;5.984;2022-11-20T14:47:41;50.60;;;37.83;;
18378;SDS011;27025;51.986;5.984;2022-11-20T14:50:29;48.70;;;35.77;;
18378;SDS011;27025;51.986;5.984;2022-11-20T14:52:58;45.93;;;33.83;;
18378;SDS011;27025;51.986;5.984;2022-11-20T14:55:26;45.70;;;34.00;;
18378;SDS011;27025;51.986;5.984;2022-11-20T14:57:56;48.93;;;34.33;;
18378;SDS011;27025;51.986;5.984;2022-11-20T15:00:22;48.27;;;35.63;;
18378;SDS011;27025;51.986;5.984;2022-11-20T15:02:49;47.67;;;36.03;;
18378;SDS011;27025;51.986;5.984;2022-11-20T15:05:16;50.37;;;36.40;;
18378;SDS011;27025;51.986;5.984;2022-11-20T15:07:45;50.50;;;35.50;;
18378;SDS011;27025;51.986;5.984;2022-11-20T15:10:24;53.37;;;35.90;;
18378;SDS011;27025;51.986;5.984;2022-11-20T15:12:52;49.97;;;36.00;;
18378;SDS011;27025;51.986;5.984;2022-11-20T15:17:47;52.43;;;37.83;;
18378;SDS011;27025;51.986;5.984;2022-11-20T15:20:14;51.83;;;37.77;;
18378;SDS011;27025;51.986;5.984;2022-11-20T15:22:41;50.93;;;36.83;;
18378;SDS011;27025;51.986;5.984;2022-11-20T15:25:14;51.03;;;36.67;;
18378;SDS011;27025;51.986;5.984;2022-11-20T15:27:40;60.43;;;42.00;;
18378;SDS011;27025;51.986;5.984;2022-11-20T15:30:14;61.13;;;40.10;;
18378;SDS011;27025;51.986;5.984;2022-11-20T15:32:41;75.37;;;37.90;;
18378;SDS011;27025;51.986;5.984;2022-11-20T15:35:07;60.00;;;37.07;;
18378;SDS011;27025;51.986;5.984;2022-11-20T15:37:34;52.67;;;37.73;;
18378;SDS011;27025;51.986;5.984;2022-11-20T15:40:00;56.43;;;39.13;;
18378;SDS011;27025;51.986;5.984;2022-11-20T15:42:26;57.90;;;36.93;;
18378;SDS011;27025;51.986;5.984;2022-11-20T15:44:52;58.50;;;36.97;;
18378;SDS011;27025;51.986;5.984;2022-11-20T15:47:19;53.17;;;35.83;;
18378;SDS011;27025;51.986;5.984;2022-11-20T15:49:48;53.93;;;36.37;;
18378;SDS011;27025;51.986;5.984;2022-11-20T15:52:14;55.57;;;36.93;;
18378;SDS011;27025;51.986;5.984;2022-11-20T15:54:41;56.30;;;36.93;;
18378;SDS011;27025;51.986;5.984;2022-11-20T15:57:07;54.70;;;36.83;;
18378;SDS011;27025;51.986;5.984;2022-11-20T15:59:33;60.93;;;37.07;;
18378;SDS011;27025;51.986;5.984;2022-11-20T16:02:01;58.90;;;38.00;;
18378;SDS011;27025;51.986;5.984;2022-11-20T16:04:27;64.77;;;45.73;;
18378;SDS011;27025;51.986;5.984;2022-11-20T16:06:54;65.83;;;43.13;;